createdAt,value
2019-02-23T00:01:04.695Z,2.30
2019-02-23T00:03:34.012Z,3.03
2019-02-23T00:06:02.859Z,2.67
2019-02-23T00:08:34.863Z,2.70
2019-02-23T00:11:04.323Z,2.57
2019-02-23T00:13:33.363Z,2.63
2019-02-23T00:16:02.690Z,2.67
2019-02-23T00:18:32.059Z,2.93
2019-02-23T00:21:01.203Z,2.50
2019-02-23T00:23:30.891Z,2.90
2019-02-23T00:26:00.089Z,3.00
2019-02-23T00:28:29.760Z,2.73
2019-02-23T00:30:59.135Z,2.93
2019-02-23T00:33:27.974Z,2.80
2019-02-23T00:35:57.653Z,2.77
2019-02-23T00:38:26.894Z,2.97
2019-02-23T00:40:56.037Z,2.90
2019-02-23T00:43:25.009Z,2.80
2019-02-23T00:45:54.341Z,3.33
2019-02-23T00:48:23.268Z,3.00
2019-02-23T00:50:53.125Z,2.57
2019-02-23T00:53:21.948Z,2.80
2019-02-23T00:55:51.076Z,2.80
2019-02-23T00:58:22.369Z,2.80
2019-02-23T01:00:51.617Z,2.90
2019-02-23T01:03:20.612Z,3.10
2019-02-23T01:16:31.718Z,2.50
2019-02-23T01:19:01.502Z,2.80
2019-02-23T01:21:30.982Z,2.80
2019-02-23T01:24:00.262Z,3.07
2019-02-23T01:26:29.970Z,3.23
2019-02-23T01:28:59.036Z,3.10
2019-02-23T01:31:28.769Z,2.87
2019-02-23T01:33:57.620Z,2.80
2019-02-23T01:36:27.097Z,2.73
2019-02-23T01:38:56.998Z,3.00
2019-02-23T01:41:26.134Z,2.60
2019-02-23T01:43:55.330Z,2.90
2019-02-23T01:46:25.112Z,2.80
2019-02-23T01:48:54.315Z,3.10
2019-02-23T01:51:23.721Z,2.60
2019-02-23T01:53:53.678Z,2.40
2019-02-23T01:56:22.907Z,2.73
2019-02-23T01:58:51.888Z,2.53
2019-02-23T02:01:24.410Z,2.50
2019-02-23T02:03:53.714Z,2.43
2019-02-23T02:06:23.594Z,2.70
2019-02-23T02:08:52.690Z,2.87
2019-02-23T02:11:22.594Z,2.83
2019-02-23T02:13:51.443Z,2.80
2019-02-23T02:16:20.428Z,2.87
2019-02-23T02:18:49.604Z,2.57
2019-02-23T02:21:18.761Z,2.47
2019-02-23T02:23:47.568Z,2.73
2019-02-23T02:26:16.520Z,2.50
2019-02-23T02:28:45.905Z,2.80
2019-02-23T02:31:15.073Z,2.57
2019-02-23T02:34:04.537Z,2.83
2019-02-23T02:36:36.395Z,2.67
2019-02-23T02:39:11.889Z,2.70
2019-02-23T02:41:40.984Z,2.90
2019-02-23T02:44:10.135Z,2.70
2019-02-23T02:46:39.957Z,2.70
2019-02-23T02:49:13.207Z,3.03
2019-02-23T02:51:42.339Z,2.97
2019-02-23T02:54:11.551Z,2.90
2019-02-23T02:56:40.363Z,2.57
2019-02-23T02:59:09.462Z,2.67
2019-02-23T03:01:41.737Z,2.80
2019-02-23T03:04:10.946Z,2.73
2019-02-23T03:06:41.782Z,2.77
2019-02-23T03:09:12.339Z,3.03
2019-02-23T03:11:41.690Z,2.50
2019-02-23T03:24:13.366Z,2.83
2019-02-23T03:26:42.782Z,3.23
2019-02-23T03:29:11.903Z,2.93
2019-02-23T03:31:41.287Z,2.83
2019-02-23T03:34:10.562Z,2.97
2019-02-23T03:36:40.169Z,2.80
2019-02-23T03:39:09.592Z,3.30
2019-02-23T03:41:39.499Z,2.70
2019-02-23T03:44:08.547Z,3.10
2019-02-23T03:46:37.835Z,2.70
2019-02-23T03:49:06.852Z,2.80
2019-02-23T03:51:36.559Z,2.87
2019-02-23T03:54:06.523Z,3.00
2019-02-23T03:56:35.517Z,3.20
2019-02-23T03:59:04.914Z,3.37
2019-02-23T04:01:34.271Z,2.70
2019-02-23T04:04:03.486Z,3.00
2019-02-23T04:06:33.008Z,2.80
2019-02-23T04:09:05.145Z,3.00
2019-02-23T04:11:34.427Z,3.03
2019-02-23T04:14:03.950Z,3.23
2019-02-23T04:16:33.403Z,2.60
2019-02-23T04:19:02.707Z,2.80
2019-02-23T04:21:31.684Z,2.90
2019-02-23T04:24:01.131Z,3.00
2019-02-23T04:26:30.357Z,2.57
2019-02-23T04:29:00.074Z,3.23
2019-02-23T04:31:29.429Z,2.80
2019-02-23T04:33:58.482Z,3.30
2019-02-23T04:36:27.923Z,3.67
2019-02-23T04:38:57.316Z,2.87
2019-02-23T04:41:29.348Z,3.00
2019-02-23T04:43:59.477Z,3.23
2019-02-23T04:46:28.753Z,2.87
2019-02-23T04:49:00.419Z,2.87
2019-02-23T04:51:29.299Z,2.50
2019-02-23T04:53:58.675Z,2.70
2019-02-23T04:56:27.799Z,2.80
2019-02-23T04:58:57.210Z,3.03
2019-02-23T05:01:26.523Z,2.73
2019-02-23T05:03:55.728Z,2.83
2019-02-23T05:06:27.780Z,2.90
2019-02-23T05:08:57.258Z,2.97
2019-02-23T05:11:26.409Z,2.63
2019-02-23T05:13:55.716Z,2.83
2019-02-23T05:16:24.875Z,2.73
2019-02-23T05:18:54.420Z,3.07
2019-02-23T05:21:27.006Z,3.10
2019-02-23T05:23:56.245Z,3.50
2019-02-23T05:26:26.050Z,2.63
2019-02-23T05:28:55.143Z,3.33
2019-02-23T05:31:25.312Z,3.30
2019-02-23T05:33:54.747Z,2.77
2019-02-23T05:36:24.010Z,3.10
2019-02-23T05:38:53.122Z,3.00
2019-02-23T05:41:22.988Z,3.23
2019-02-23T05:43:52.283Z,3.23
2019-02-23T05:46:21.692Z,3.50
2019-02-23T05:48:50.773Z,2.60
2019-02-23T05:51:20.116Z,3.40
2019-02-23T05:53:49.334Z,3.33
2019-02-23T05:56:18.645Z,3.30
2019-02-23T05:58:48.498Z,3.00
2019-02-23T06:01:17.652Z,2.83
2019-02-23T06:03:46.433Z,3.10
2019-02-23T06:06:15.727Z,2.90
2019-02-23T06:08:44.631Z,3.27
2019-02-23T06:11:13.887Z,3.37
2019-02-23T06:13:43.436Z,3.87
2019-02-23T06:16:21.954Z,3.23
2019-02-23T06:18:51.907Z,3.20
2019-02-23T06:21:22.430Z,3.20
2019-02-23T06:23:51.473Z,3.47
2019-02-23T06:26:20.555Z,3.40
2019-02-23T06:28:49.510Z,3.40
2019-02-23T06:31:18.748Z,3.83
2019-02-23T06:33:47.780Z,3.67
2019-02-23T06:36:16.651Z,3.90
2019-02-23T06:38:46.133Z,3.50
2019-02-23T06:41:15.661Z,3.43
2019-02-23T06:43:44.766Z,3.60
2019-02-23T06:46:13.838Z,3.80
2019-02-23T06:48:43.357Z,4.30
2019-02-23T06:51:13.461Z,3.70
2019-02-23T06:53:42.361Z,3.90
2019-02-23T06:56:11.572Z,4.30
2019-02-23T06:58:40.995Z,3.50
2019-02-23T07:01:09.984Z,3.80
2019-02-23T07:03:38.913Z,3.97
2019-02-23T07:06:07.894Z,4.50
2019-02-23T07:08:37.500Z,4.57
2019-02-23T07:11:07.442Z,4.17
2019-02-23T07:13:37.075Z,4.73
2019-02-23T07:16:06.239Z,5.10
2019-02-23T07:18:35.458Z,5.17
2019-02-23T07:21:04.368Z,5.00
2019-02-23T07:23:33.252Z,4.87
2019-02-23T07:26:02.489Z,5.43
2019-02-23T07:28:31.550Z,5.10
2019-02-23T07:31:03.838Z,5.40
2019-02-23T07:33:36.254Z,5.20
2019-02-23T07:36:05.559Z,5.20
2019-02-23T07:38:35.581Z,5.13
2019-02-23T07:41:04.853Z,5.43
2019-02-23T07:43:34.039Z,5.20
2019-02-23T07:46:03.225Z,8.13
2019-02-23T07:48:32.204Z,6.10
2019-02-23T07:51:01.520Z,6.83
2019-02-23T07:53:30.579Z,7.00
2019-02-23T07:55:59.903Z,4.87
2019-02-23T07:58:29.297Z,6.13
2019-02-23T08:00:58.495Z,4.93
2019-02-23T08:03:28.744Z,5.30
2019-02-23T08:05:57.830Z,5.17
2019-02-23T08:08:27.057Z,5.73
2019-02-23T08:10:55.936Z,5.53
2019-02-23T08:13:25.157Z,5.40
2019-02-23T08:15:54.838Z,5.13
2019-02-23T08:18:24.437Z,5.43
2019-02-23T08:20:53.897Z,5.27
2019-02-23T08:23:23.812Z,5.50
2019-02-23T08:25:54.005Z,5.20
2019-02-23T08:28:23.502Z,6.53
2019-02-23T08:30:52.721Z,5.50
2019-02-23T08:33:22.177Z,5.60
2019-02-23T08:35:50.996Z,5.70
2019-02-23T08:38:21.188Z,6.23
2019-02-23T08:40:52.524Z,6.00
2019-02-23T08:43:40.333Z,6.07
2019-02-23T08:46:10.048Z,6.40
2019-02-23T08:48:39.028Z,5.43
2019-02-23T08:51:17.743Z,5.93
2019-02-23T08:53:46.537Z,5.30
2019-02-23T08:56:15.961Z,5.77
2019-02-23T09:01:48.786Z,5.30
2019-02-23T09:04:17.706Z,4.73
2019-02-23T09:06:47.638Z,5.00
2019-02-23T09:09:17.022Z,4.53
2019-02-23T09:11:45.919Z,5.33
2019-02-23T09:17:46.183Z,4.53
2019-02-23T09:20:15.285Z,5.13
2019-02-23T09:22:44.681Z,5.20
2019-02-23T09:25:13.712Z,4.93
2019-02-23T09:27:42.587Z,3.80
2019-02-23T09:30:11.587Z,4.97
2019-02-23T09:32:40.539Z,4.53
2019-02-23T09:35:09.593Z,4.80
2019-02-23T09:37:38.773Z,4.60
2019-02-23T09:40:08.900Z,4.83
2019-02-23T09:42:39.083Z,4.77
2019-02-23T09:45:09.571Z,3.80
2019-02-23T09:47:38.547Z,4.03
2019-02-23T09:50:08.972Z,4.57
2019-02-23T09:52:38.114Z,4.63
2019-02-23T09:55:06.974Z,4.10
2019-02-23T09:57:35.818Z,4.63
2019-02-23T10:00:15.073Z,3.90
2019-02-23T10:02:41.176Z,4.30
2019-02-23T10:05:38.050Z,4.53
2019-02-23T10:08:06.227Z,3.70
2019-02-23T10:10:36.157Z,4.43
2019-02-23T10:13:05.014Z,3.53
2019-02-23T10:15:34.033Z,4.43
2019-02-23T10:18:02.869Z,4.17
2019-02-23T10:20:31.694Z,3.83
2019-02-23T10:23:01.604Z,4.70
2019-02-23T10:25:30.864Z,3.43
2019-02-23T10:28:03.138Z,4.10
2019-02-23T10:30:32.121Z,4.70
2019-02-23T10:33:00.945Z,4.17
2019-02-23T10:35:29.950Z,4.63
2019-02-23T10:38:00.023Z,4.10
2019-02-23T10:40:28.849Z,4.13
2019-02-23T10:42:57.861Z,3.83
2019-02-23T10:45:26.853Z,3.97
2019-02-23T10:47:55.727Z,4.43
2019-02-23T10:50:24.636Z,4.40
2019-02-23T10:52:54.040Z,4.37
2019-02-23T10:55:23.724Z,4.43
2019-02-23T10:57:54.022Z,4.23
2019-02-23T11:00:22.987Z,4.43
2019-02-23T11:02:52.043Z,3.97
2019-02-23T11:05:21.332Z,4.80
2019-02-23T11:07:50.461Z,4.57
2019-02-23T11:10:20.473Z,4.27
2019-02-23T11:12:49.366Z,4.57
2019-02-23T11:15:19.305Z,4.23
2019-02-23T11:17:50.979Z,4.10
2019-02-23T11:20:20.124Z,4.07
2019-02-23T11:22:49.385Z,4.47
2019-02-23T11:25:18.300Z,4.50
2019-02-23T11:27:47.223Z,4.37
2019-02-23T11:30:17.700Z,4.20
2019-02-23T11:32:49.714Z,3.70
2019-02-23T11:35:18.689Z,3.87
2019-02-23T11:37:47.992Z,3.60
2019-02-23T11:40:16.939Z,3.93
2019-02-23T11:42:45.740Z,4.53
2019-02-23T11:45:15.081Z,4.37
2019-02-23T11:47:44.174Z,4.57
2019-02-23T11:50:13.629Z,4.30
2019-02-23T11:52:42.536Z,5.13
2019-02-23T11:55:11.634Z,5.00
2019-02-23T11:57:40.503Z,5.63
2019-02-23T12:00:09.918Z,5.60
2019-02-23T12:02:39.038Z,5.70
2019-02-23T12:05:08.247Z,5.20
2019-02-23T12:07:37.069Z,6.47
2019-02-23T12:10:07.728Z,5.27
2019-02-23T12:12:36.656Z,6.17
2019-02-23T12:15:05.839Z,4.87
2019-02-23T12:17:34.698Z,5.30
2019-02-23T12:20:03.700Z,4.70
2019-02-23T12:22:32.649Z,4.60
2019-02-23T12:25:01.818Z,3.80
2019-02-23T12:27:30.847Z,3.90
2019-02-23T12:29:59.780Z,4.10
2019-02-23T12:32:29.398Z,4.03
2019-02-23T12:34:58.594Z,4.20
2019-02-23T12:37:27.529Z,4.10
2019-02-23T12:39:56.380Z,4.07
2019-02-23T12:42:27.526Z,3.90
2019-02-23T12:44:57.115Z,3.93
2019-02-23T12:47:26.093Z,3.97
2019-02-23T12:50:03.617Z,4.03
2019-02-23T12:52:32.473Z,4.20
2019-02-23T12:55:01.313Z,3.97
2019-02-23T12:57:31.287Z,4.57
2019-02-23T13:00:08.444Z,4.13
2019-02-23T13:02:41.690Z,4.20
2019-02-23T13:05:10.692Z,3.97
2019-02-23T13:07:39.681Z,3.90
2019-02-23T13:10:11.313Z,4.03
2019-02-23T13:13:11.222Z,4.80
2019-02-23T13:16:13.800Z,4.33
2019-02-23T13:19:02.631Z,3.83
2019-02-23T13:22:00.077Z,4.07
2019-02-23T13:25:12.049Z,4.20
2019-02-23T13:28:30.436Z,4.10
2019-02-23T13:31:17.397Z,4.27
2019-02-23T13:34:27.779Z,4.50
2019-02-23T13:40:56.303Z,4.63
2019-02-23T13:44:13.078Z,4.70
2019-02-23T13:47:23.881Z,4.43
2019-02-23T13:50:44.593Z,5.27
2019-02-23T13:53:53.285Z,4.90
2019-02-23T13:56:49.757Z,4.90
2019-02-23T13:59:42.501Z,4.67
2019-02-23T14:03:02.146Z,4.40
2019-02-23T14:06:10.463Z,5.10
2019-02-23T14:09:08.391Z,4.80
2019-02-23T14:12:10.886Z,5.20
2019-02-23T14:15:05.872Z,3.80
2019-02-23T14:18:00.141Z,4.40
2019-02-23T14:20:54.874Z,4.73
2019-02-23T14:24:13.925Z,4.33
2019-02-23T14:27:20.165Z,4.30
2019-02-23T14:30:18.156Z,4.57
2019-02-23T14:33:24.505Z,4.50
2019-02-23T14:36:09.396Z,5.13
2019-02-23T14:41:59.529Z,4.83
2019-02-23T14:44:52.124Z,5.17
2019-02-23T14:47:56.876Z,4.93
2019-02-23T14:51:16.107Z,4.77
2019-02-23T14:54:09.357Z,4.97
2019-02-23T14:57:10.076Z,4.80
2019-02-23T15:00:11.802Z,4.87
2019-02-23T15:03:19.815Z,4.00
2019-02-23T15:06:28.631Z,4.73
2019-02-23T15:09:44.952Z,4.47
2019-02-23T15:13:10.053Z,4.67
2019-02-23T15:16:41.661Z,4.40
2019-02-23T15:19:47.734Z,4.87
2019-02-23T15:22:59.447Z,5.33
2019-02-23T15:26:10.258Z,4.80
2019-02-23T15:29:16.830Z,4.70
2019-02-23T15:32:26.051Z,4.67
2019-02-23T15:35:18.535Z,4.33
2019-02-23T15:38:37.443Z,4.90
2019-02-23T15:41:56.751Z,4.70
2019-02-23T15:45:12.259Z,4.37
2019-02-23T15:48:28.714Z,4.87
2019-02-23T15:50:59.702Z,4.87
2019-02-23T15:53:28.747Z,5.37
2019-02-23T15:55:59.212Z,4.90
2019-02-23T15:58:28.258Z,4.87
2019-02-23T16:00:57.109Z,5.03
2019-02-23T16:03:27.521Z,4.70
2019-02-23T16:05:59.687Z,4.40
2019-02-23T16:08:29.302Z,4.70
2019-02-23T16:11:00.054Z,4.93
2019-02-23T16:13:29.179Z,4.97
2019-02-23T16:15:58.340Z,4.60
2019-02-23T16:18:27.774Z,5.17
2019-02-23T16:20:57.063Z,5.80
2019-02-23T16:23:35.005Z,5.20
2019-02-23T16:25:57.721Z,5.07
2019-02-23T16:28:26.684Z,5.10
2019-02-23T16:30:55.656Z,4.40
2019-02-23T16:33:24.708Z,4.53
2019-02-23T16:35:53.974Z,5.07
2019-02-23T16:38:22.848Z,4.90
2019-02-23T16:40:52.376Z,4.60
2019-02-23T16:43:24.191Z,4.73
2019-02-23T16:45:53.035Z,4.97
2019-02-23T16:48:22.097Z,4.90
2019-02-23T16:50:51.088Z,5.10
2019-02-23T16:53:20.158Z,5.30
2019-02-23T16:55:51.168Z,5.17
2019-02-23T16:58:21.502Z,5.07
2019-02-23T17:00:50.823Z,4.70
2019-02-23T17:03:19.979Z,5.27
2019-02-23T17:05:50.717Z,5.13
2019-02-23T17:08:19.759Z,5.47
2019-02-23T17:10:49.912Z,4.93
2019-02-23T17:13:19.049Z,5.83
2019-02-23T17:15:50.037Z,5.60
2019-02-23T17:18:19.105Z,5.73
2019-02-23T17:20:48.062Z,5.50
2019-02-23T17:23:17.488Z,5.73
2019-02-23T17:25:46.803Z,5.40
2019-02-23T17:28:15.573Z,5.30
2019-02-23T17:30:45.040Z,5.23
2019-02-23T17:33:14.197Z,5.60
2019-02-23T17:35:43.278Z,5.50
2019-02-23T17:38:16.244Z,5.50
2019-02-23T17:40:43.277Z,5.53
2019-02-23T17:43:12.197Z,5.67
2019-02-23T17:45:42.324Z,5.53
2019-02-23T17:48:11.296Z,5.70
2019-02-23T17:50:42.615Z,5.83
2019-02-23T17:53:14.093Z,6.30
2019-02-23T17:55:44.070Z,6.43
2019-02-23T17:58:14.602Z,5.90
2019-02-23T18:00:47.398Z,5.70
2019-02-23T18:03:18.533Z,6.03
2019-02-23T18:06:04.847Z,6.57
2019-02-23T18:08:35.486Z,6.40
2019-02-23T18:11:04.711Z,6.57
2019-02-23T18:13:33.748Z,6.30
2019-02-23T18:16:04.006Z,6.83
2019-02-23T18:18:32.890Z,9.73
2019-02-23T18:21:03.443Z,5.90
2019-02-23T18:23:34.720Z,6.17
2019-02-23T18:26:08.148Z,5.47
2019-02-23T18:29:05.123Z,6.27
2019-02-23T18:31:39.817Z,5.93
2019-02-23T18:34:10.994Z,5.40
2019-02-23T18:36:47.212Z,5.87
2019-02-23T18:39:17.827Z,6.00
2019-02-23T18:41:54.202Z,5.53
2019-02-23T18:44:23.964Z,5.47
2019-02-23T18:46:53.190Z,5.80
2019-02-23T18:49:23.896Z,5.97
2019-02-23T18:51:52.765Z,5.97
2019-02-23T18:54:21.849Z,6.10
2019-02-23T18:56:51.512Z,5.90
2019-02-23T18:59:22.637Z,5.63
2019-02-23T19:01:52.296Z,5.60
2019-02-23T19:04:23.060Z,5.63
2019-02-23T19:06:52.755Z,5.93
2019-02-23T19:09:21.802Z,5.20
2019-02-23T19:11:50.611Z,5.40
2019-02-23T19:14:20.066Z,5.27
2019-02-23T19:16:55.614Z,6.23
2019-02-23T19:19:24.881Z,6.07
2019-02-23T19:21:54.862Z,6.23
2019-02-23T19:24:24.735Z,6.00
2019-02-23T19:26:53.731Z,5.67
2019-02-23T19:29:23.357Z,5.87
2019-02-23T19:31:52.346Z,5.60
2019-02-23T19:34:21.930Z,6.10
2019-02-23T19:36:51.085Z,5.87
2019-02-23T19:39:20.390Z,5.60
2019-02-23T19:41:49.361Z,6.30
2019-02-23T19:44:19.710Z,5.93
2019-02-23T19:50:10.302Z,7.43
2019-02-23T19:52:39.782Z,6.83
2019-02-23T19:55:10.248Z,7.60
2019-02-23T19:57:41.330Z,8.30
2019-02-23T20:00:11.153Z,7.77
2019-02-23T20:02:40.587Z,7.90
2019-02-23T20:05:10.434Z,7.93
2019-02-23T20:07:40.683Z,7.77
2019-02-23T20:10:10.815Z,7.37
2019-02-23T20:12:40.043Z,6.67
2019-02-23T20:15:08.952Z,6.00
2019-02-23T20:17:39.219Z,6.63
2019-02-23T20:20:08.295Z,6.27
2019-02-23T20:22:37.158Z,7.13
2019-02-23T20:25:06.257Z,6.20
2019-02-23T20:27:35.221Z,7.10
2019-02-23T20:30:04.683Z,6.53
2019-02-23T20:32:34.870Z,6.70
2019-02-23T20:35:04.445Z,6.53
2019-02-23T20:37:33.258Z,5.87
2019-02-23T20:40:02.481Z,6.83
2019-02-23T20:42:32.373Z,6.97
2019-02-23T20:45:01.991Z,9.17
2019-02-23T20:47:30.970Z,7.63
2019-02-23T20:50:00.481Z,8.30
2019-02-23T20:52:29.509Z,7.23
2019-02-23T20:54:58.956Z,7.90
2019-02-23T20:57:28.081Z,6.80
2019-02-23T20:59:58.439Z,6.80
2019-02-23T21:02:27.421Z,7.20
2019-02-23T21:04:56.891Z,6.60
2019-02-23T21:07:25.999Z,6.87
2019-02-23T21:09:56.553Z,7.17
2019-02-23T21:12:25.848Z,6.67
2019-02-23T21:14:55.119Z,7.30
2019-02-23T21:17:24.060Z,6.43
2019-02-23T21:19:54.240Z,6.93
2019-02-23T21:22:23.219Z,6.60
2019-02-23T21:24:52.287Z,7.50
2019-02-23T21:27:24.300Z,6.67
2019-02-23T21:29:54.667Z,7.07
2019-02-23T21:32:25.949Z,7.30
2019-02-23T21:34:59.495Z,7.30
2019-02-23T21:37:29.358Z,7.20
2019-02-23T21:39:58.628Z,8.17
2019-02-23T21:45:23.465Z,7.80
2019-02-23T21:47:53.210Z,8.10
2019-02-23T21:50:22.040Z,8.17
2019-02-23T21:52:51.031Z,7.77
2019-02-23T21:55:21.915Z,7.87
2019-02-23T21:57:50.843Z,8.10
2019-02-23T22:00:21.577Z,7.90
2019-02-23T22:02:50.444Z,7.83
2019-02-23T22:05:19.483Z,8.43
2019-02-23T22:07:48.702Z,8.43
2019-02-23T22:10:17.716Z,8.30
2019-02-23T22:12:47.035Z,8.23
2019-02-23T22:15:20.624Z,8.50
2019-02-23T22:17:49.532Z,9.30
2019-02-23T22:20:21.816Z,9.97
2019-02-23T22:22:50.675Z,9.90
2019-02-23T22:25:31.180Z,9.87
2019-02-23T22:28:00.377Z,9.63
2019-02-23T22:30:29.281Z,8.10
2019-02-23T22:32:58.297Z,9.57
2019-02-23T22:35:27.522Z,9.10
2019-02-23T22:38:03.434Z,8.23
2019-02-23T22:40:32.535Z,9.20
2019-02-23T22:43:01.349Z,8.40
2019-02-23T22:45:30.192Z,8.17
2019-02-23T22:47:59.086Z,8.40
2019-02-23T22:50:28.254Z,7.77
2019-02-23T22:52:57.544Z,8.07
2019-02-23T22:55:26.345Z,8.00
2019-02-23T22:57:55.215Z,7.83
2019-02-23T23:00:28.426Z,7.50
2019-02-23T23:02:57.628Z,8.27
2019-02-23T23:05:26.734Z,7.93
2019-02-23T23:07:55.598Z,8.00
2019-02-23T23:10:24.616Z,7.93
2019-02-23T23:12:53.439Z,7.90
2019-02-23T23:15:25.589Z,7.47
2019-02-23T23:17:54.592Z,8.00
2019-02-23T23:20:23.844Z,8.93
2019-02-23T23:22:53.129Z,7.97
2019-02-23T23:25:22.051Z,8.23
2019-02-23T23:27:51.159Z,8.07
2019-02-23T23:30:20.664Z,8.53
2019-02-23T23:32:49.504Z,9.07
2019-02-23T23:35:18.745Z,8.93
2019-02-23T23:37:54.859Z,8.27
2019-02-23T23:40:23.668Z,7.90
2019-02-23T23:42:58.234Z,8.83
2019-02-23T23:45:23.273Z,7.77
2019-02-23T23:47:52.176Z,8.57
2019-02-23T23:50:21.173Z,8.03
2019-02-23T23:52:50.053Z,7.60
2019-02-23T23:55:18.945Z,7.77
2019-02-23T23:57:57.781Z,7.57
